Time;durP1;ratioP1;P1;durP2;ratioP2;P2;SDS_P1;SDS_P2;PMS_P1;PMS_P2;Temp;Humidity;BMP_temperature;BMP_pressure;BME280_temperature;BME280_humidity;BME280_pressure;Samples;Min_cycle;Max_cycle;Signal;HPM_P1;HPM_P2
2022/01/23 00:00:31;;;;;;;0.93;0.80;;;7.30;95.00;;;;;;9195586;19;20015;-72
2022/01/23 00:03:42;;;;;;;2.25;1.00;;;7.30;95.00;;;;;;9196991;19;20063;-71
2022/01/23 00:06:51;;;;;;;0.90;0.90;;;7.30;95.00;;;;;;9196542;19;20972;-72
2022/01/23 00:09:56;;;;;;;1.55;1.00;;;7.30;95.00;;;;;;9194041;19;20082;-72
2022/01/23 00:13:17;;;;;;;0.80;0.80;;;7.30;95.00;;;;;;9192633;19;20014;-71
2022/01/23 00:19:39;;;;;;;1.85;1.00;;;7.20;95.00;;;;;;9196360;19;20014;-72
2022/01/23 00:22:47;;;;;;;2.05;1.08;;;7.20;95.00;;;;;;9195283;19;20085;-72
2022/01/23 00:32:33;;;;;;;1.77;0.95;;;7.30;95.00;;;;;;9187730;19;20017;-71
2022/01/23 00:35:41;;;;;;;1.98;1.02;;;7.20;95.00;;;;;;9188763;19;20090;-71
2022/01/23 00:38:48;;;;;;;1.25;1.10;;;7.30;95.00;;;;;;9185856;19;20085;-71
2022/01/23 00:41:54;;;;;;;2.00;1.08;;;7.20;95.00;;;;;;9184966;19;20044;-71
2022/01/23 00:45:21;;;;;;;2.72;1.10;;;7.20;95.00;;;;;;9185727;19;20024;-70
2022/01/23 00:48:30;;;;;;;2.00;1.20;;;7.20;95.00;;;;;;9184893;19;20023;-70
2022/01/23 00:51:37;;;;;;;3.35;1.30;;;7.20;95.00;;;;;;9185079;19;20026;-71
2022/01/23 00:54:42;;;;;;;1.75;1.20;;;7.20;95.00;;;;;;9187408;19;20010;-71
2022/01/23 00:57:47;;;;;;;2.08;0.98;;;7.20;95.00;;;;;;9187596;19;20011;-72
2022/01/23 01:00:56;;;;;;;1.60;1.17;;;7.20;95.00;;;;;;9187847;19;20192;-71
2022/01/23 01:04:02;;;;;;;4.15;1.17;;;7.20;95.00;;;;;;9184824;19;20027;-71
2022/01/23 01:07:10;;;;;;;2.60;1.40;;;7.20;95.00;;;;;;9184063;19;20044;-71
2022/01/23 01:10:22;;;;;;;2.50;1.15;;;7.20;95.00;;;;;;9182809;19;20028;-71
2022/01/23 01:13:40;;;;;;;2.97;1.10;;;7.20;95.00;;;;;;9184905;19;20006;-72
2022/01/23 01:16:59;;;;;;;2.10;1.35;;;7.20;95.00;;;;;;9185276;19;20490;-71
2022/01/23 01:30:36;;;;;;;3.13;1.13;;;7.20;95.00;;;;;;9184736;19;20022;-71
2022/01/23 01:33:50;;;;;;;2.03;1.33;;;7.20;95.00;;;;;;9184998;19;20344;-71
2022/01/23 01:36:56;;;;;;;2.05;1.00;;;7.20;95.00;;;;;;9186994;19;20487;-71
2022/01/23 01:40:01;;;;;;;2.83;1.15;;;7.20;95.00;;;;;;9181900;19;20681;-71
2022/01/23 01:43:07;;;;;;;1.20;1.10;;;7.20;95.00;;;;;;9179034;19;20029;-72
2022/01/23 01:46:17;;;;;;;1.67;1.27;;;7.20;95.00;;;;;;9184419;19;20014;-71
2022/01/23 01:49:33;;;;;;;1.40;1.30;;;7.20;95.00;;;;;;9183093;19;20024;-71
2022/01/23 01:52:41;;;;;;;1.80;1.20;;;7.20;95.00;;;;;;9184267;19;20043;-71
2022/01/23 01:55:54;;;;;;;3.05;1.13;;;7.20;95.00;;;;;;9183452;19;20015;-72
2022/01/23 01:59:18;;;;;;;1.75;1.13;;;7.20;95.00;;;;;;9184382;19;20553;-71
2022/01/23 02:09:39;;;;;;;1.50;1.00;;;7.20;95.00;;;;;;9179582;19;20018;-71
2022/01/23 02:23:01;;;;;;;2.88;1.92;;;7.20;95.00;;;;;;9181081;19;20042;-71
2022/01/23 02:53:13;;;;;;;1.45;1.15;;;7.20;95.00;;;;;;9178847;19;20045;-72
2022/01/23 02:56:31;;;;;;;3.70;1.30;;;7.20;95.00;;;;;;9180767;19;20014;-71
2022/01/23 02:59:39;;;;;;;1.25;1.10;;;7.20;95.10;;;;;;9181492;19;20006;-71
2022/01/23 03:03:14;;;;;;;1.20;1.00;;;7.20;95.00;;;;;;9181159;19;20021;-72
2022/01/23 03:06:55;;;;;;;2.95;1.20;;;7.20;95.10;;;;;;9177740;19;20018;-71
2022/01/23 03:10:03;;;;;;;1.80;1.35;;;7.20;95.00;;;;;;9179979;19;21035;-72
2022/01/23 03:13:40;;;;;;;1.42;1.10;;;7.20;95.00;;;;;;9180171;19;20062;-71
2022/01/23 03:26:53;;;;;;;3.08;1.38;;;7.20;95.00;;;;;;9179319;19;20010;-72
2022/01/23 03:30:16;;;;;;;2.63;1.40;;;7.20;95.00;;;;;;9178126;19;20015;-72
2022/01/23 03:33:21;;;;;;;3.80;1.15;;;7.20;95.00;;;;;;9179468;19;20017;-71
2022/01/23 03:36:27;;;;;;;1.30;1.17;;;7.20;95.10;;;;;;9179916;19;20022;-72
2022/01/23 03:39:32;;;;;;;2.03;1.15;;;7.20;95.00;;;;;;9181169;19;20014;-73
2022/01/23 03:42:41;;;;;;;4.50;1.40;;;7.20;95.00;;;;;;9178116;19;20041;-72
2022/01/23 03:45:59;;;;;;;3.83;1.55;;;7.20;95.00;;;;;;9178939;19;20052;-73
2022/01/23 03:52:24;;;;;;;3.25;1.40;;;7.20;95.00;;;;;;9177443;19;20018;-71
2022/01/23 03:55:29;;;;;;;2.22;1.52;;;7.20;95.00;;;;;;9177979;19;20014;-72
2022/01/23 03:58:36;;;;;;;1.83;1.23;;;7.20;95.00;;;;;;9178654;19;20010;-72
2022/01/23 04:01:47;;;;;;;2.10;1.17;;;7.20;95.00;;;;;;9178821;19;20434;-72
2022/01/23 04:04:52;;;;;;;1.63;1.02;;;7.30;95.10;;;;;;9176754;19;20013;-73
2022/01/23 04:08:00;;;;;;;3.03;1.10;;;7.20;95.00;;;;;;9187125;19;20022;-72
2022/01/23 04:11:05;;;;;;;1.40;1.30;;;7.30;95.10;;;;;;9184906;19;20010;-72
2022/01/23 04:14:13;;;;;;;2.25;1.50;;;7.20;95.00;;;;;;9185875;19;20010;-72
2022/01/23 04:18:09;;;;;;;2.58;1.40;;;7.30;95.10;;;;;;9186879;19;20033;-71
2022/01/23 04:21:16;;;;;;;2.08;1.60;;;7.20;95.00;;;;;;9186677;19;20496;-72
2022/01/23 04:34:24;;;;;;;1.88;1.50;;;7.30;95.10;;;;;;9187076;19;20112;-71
2022/01/23 05:00:59;;;;;;;2.63;1.52;;;7.20;95.00;;;;;;9184547;19;20006;-72
2022/01/23 05:04:14;;;;;;;2.00;1.60;;;7.20;95.00;;;;;;9185349;19;20352;-72
2022/01/23 05:07:45;;;;;;;1.48;1.38;;;7.30;95.10;;;;;;9184881;19;20042;-72
2022/01/23 05:11:17;;;;;;;1.98;1.52;;;7.20;95.00;;;;;;9183270;19;20015;-71
2022/01/23 05:14:43;;;;;;;2.10;1.42;;;7.30;95.10;;;;;;9185517;19;20380;-72
2022/01/23 05:17:49;;;;;;;3.30;1.70;;;7.30;95.10;;;;;;9185641;19;20024;-72
2022/01/23 05:21:03;;;;;;;1.83;1.40;;;7.20;95.30;;;;;;9185608;19;20014;-71
2022/01/23 05:24:11;;;;;;;1.90;1.70;;;7.20;95.10;;;;;;9186107;19;20014;-72
2022/01/23 05:27:18;;;;;;;2.58;1.40;;;7.20;95.10;;;;;;9186885;19;20017;-72
2022/01/23 05:30:24;;;;;;;2.60;1.45;;;7.20;95.00;;;;;;9183847;19;20025;-72
2022/01/23 05:33:29;;;;;;;2.55;1.35;;;7.20;95.00;;;;;;9183634;19;20022;-72
2022/01/23 05:36:36;;;;;;;2.05;1.77;;;7.20;95.00;;;;;;9183537;19;20668;-71
2022/01/23 05:39:43;;;;;;;3.00;1.50;;;7.20;95.00;;;;;;9185451;19;20070;-71
2022/01/23 05:42:49;;;;;;;2.33;1.80;;;7.20;95.10;;;;;;9183246;19;20030;-71
2022/01/23 05:45:54;;;;;;;2.97;1.42;;;7.20;95.00;;;;;;9181939;19;20019;-72
2022/01/23 05:49:11;;;;;;;3.70;1.45;;;7.20;95.10;;;;;;9182311;19;20093;-72
2022/01/23 05:52:33;;;;;;;2.88;1.60;;;7.20;95.00;;;;;;9182245;19;20015;-71
2022/01/23 05:55:46;;;;;;;1.67;1.58;;;7.20;95.00;;;;;;9184097;19;20014;-72
2022/01/23 05:59:05;;;;;;;2.47;1.70;;;7.20;95.00;;;;;;9184011;19;20017;-72
2022/01/23 06:02:14;;;;;;;2.83;1.80;;;7.20;95.00;;;;;;9181967;19;20014;-73
2022/01/23 06:05:19;;;;;;;4.28;2.20;;;7.20;95.00;;;;;;9181187;19;20014;-72
2022/01/23 06:08:32;;;;;;;3.58;1.75;;;7.20;95.00;;;;;;9182326;19;20017;-71
2022/01/23 06:11:40;;;;;;;2.08;1.67;;;7.20;95.00;;;;;;9183315;19;20010;-72
2022/01/23 06:14:45;;;;;;;2.45;1.83;;;7.20;95.00;;;;;;9182440;19;20014;-72
2022/01/23 06:17:50;;;;;;;2.70;1.70;;;7.20;95.00;;;;;;9180333;19;20422;-73
2022/01/23 06:21:18;;;;;;;3.87;1.97;;;7.20;95.00;;;;;;9183611;19;20022;-72
2022/01/23 06:24:52;;;;;;;2.05;1.85;;;7.20;95.00;;;;;;9180995;19;20018;-72
2022/01/23 06:28:12;;;;;;;2.78;1.75;;;7.20;95.10;;;;;;9178780;19;20028;-72
2022/01/23 06:31:17;;;;;;;2.45;1.98;;;7.10;95.00;;;;;;9182185;19;20014;-72
2022/01/23 06:34:22;;;;;;;6.05;1.75;;;7.20;95.00;;;;;;9183942;19;20010;-73
2022/01/23 06:37:27;;;;;;;2.83;2.00;;;7.10;95.00;;;;;;9184210;19;20033;-73
2022/01/23 06:40:33;;;;;;;2.53;1.90;;;7.20;95.10;;;;;;9182146;19;20017;-72
2022/01/23 06:44:13;;;;;;;2.88;1.70;;;7.20;95.00;;;;;;9178782;19;20027;-72
2022/01/23 06:47:21;;;;;;;1.98;1.67;;;7.20;95.00;;;;;;9178463;19;20021;-72
2022/01/23 06:50:28;;;;;;;1.50;1.40;;;7.10;95.00;;;;;;9183101;19;20017;-72
2022/01/23 06:53:33;;;;;;;2.58;1.92;;;7.10;95.00;;;;;;9180032;19;20058;-73
2022/01/23 06:56:38;;;;;;;2.03;1.55;;;7.10;95.00;;;;;;9182067;19;20014;-72
2022/01/23 06:59:46;;;;;;;2.28;1.65;;;7.10;95.00;;;;;;9181577;19;20082;-72
2022/01/23 07:03:20;;;;;;;3.20;1.65;;;7.10;95.00;;;;;;9179055;19;20018;-73
2022/01/23 07:06:43;;;;;;;3.95;1.70;;;7.10;95.00;;;;;;9178038;19;20018;-72
2022/01/23 07:10:14;;;;;;;2.60;2.10;;;7.10;95.00;;;;;;9180033;19;20018;-72
2022/01/23 07:13:43;;;;;;;3.58;1.98;;;7.20;95.00;;;;;;9180729;19;20011;-73
2022/01/23 07:17:02;;;;;;;3.03;1.80;;;7.10;95.00;;;;;;9180626;19;20110;-74
2022/01/23 07:20:22;;;;;;;5.13;2.38;;;7.10;95.00;;;;;;9177702;19;20018;-72
2022/01/23 07:23:33;;;;;;;3.92;2.50;;;7.10;95.00;;;;;;9178551;19;20014;-72
2022/01/23 07:26:40;;;;;;;3.03;2.00;;;7.10;95.00;;;;;;9180404;19;20014;-72
2022/01/23 07:29:47;;;;;;;3.10;2.30;;;7.10;95.00;;;;;;9178272;19;20019;-72
2022/01/23 07:32:58;;;;;;;3.03;1.70;;;7.10;95.00;;;;;;9179295;19;20540;-72
2022/01/23 07:36:03;;;;;;;3.75;2.03;;;7.10;95.10;;;;;;9179510;19;20282;-72
2022/01/23 07:39:09;;;;;;;3.30;2.20;;;7.10;95.00;;;;;;9180840;19;20018;-72
2022/01/23 07:42:22;;;;;;;5.00;2.45;;;7.10;95.00;;;;;;9190610;19;21587;-72
2022/01/23 07:45:57;;;;;;;4.82;2.63;;;7.10;95.00;;;;;;9183929;19;20022;-73
2022/01/23 07:49:40;;;;;;;3.50;3.20;;;7.10;95.00;;;;;;9189631;19;20078;-72
2022/01/23 07:53:03;;;;;;;5.72;2.40;;;7.10;95.00;;;;;;9184621;19;20010;-72
2022/01/23 07:56:38;;;;;;;4.10;2.10;;;7.10;95.00;;;;;;9183455;19;20037;-72
2022/01/23 08:00:03;;;;;;;4.30;3.15;;;7.10;95.00;;;;;;9184566;19;20034;-72
2022/01/23 08:03:20;;;;;;;4.72;2.72;;;7.10;95.00;;;;;;9184807;19;20010;-74
2022/01/23 08:06:48;;;;;;;2.72;2.53;;;7.10;95.10;;;;;;9182500;19;20024;-72
2022/01/23 08:10:14;;;;;;;4.38;2.53;;;7.10;95.10;;;;;;9184914;19;20495;-72
2022/01/23 08:13:19;;;;;;;4.75;2.58;;;7.00;95.20;;;;;;9186284;19;20085;-72
2022/01/23 08:16:26;;;;;;;4.32;2.38;;;7.10;95.10;;;;;;9187063;19;20086;-72
2022/01/23 08:19:31;;;;;;;4.43;2.28;;;7.10;95.10;;;;;;9188224;19;20036;-72
2022/01/23 08:22:39;;;;;;;2.47;2.20;;;7.10;95.10;;;;;;9187456;19;20021;-71
2022/01/23 08:25:49;;;;;;;3.05;2.28;;;7.10;95.10;;;;;;9185148;19;20014;-72
2022/01/23 08:29:00;;;;;;;3.90;2.60;;;7.10;95.10;;;;;;9185232;19;20038;-72
2022/01/23 08:32:06;;;;;;;3.22;2.70;;;7.10;95.10;;;;;;9186998;19;20019;-72
2022/01/23 08:35:14;;;;;;;3.28;2.53;;;7.10;95.10;;;;;;9185834;19;20517;-72
2022/01/23 08:38:21;;;;;;;6.00;3.00;;;7.10;95.10;;;;;;9188840;19;20356;-72
2022/01/23 08:44:53;;;;;;;4.03;2.65;;;7.10;95.10;;;;;;9184728;19;20002;-71
2022/01/23 08:47:59;;;;;;;4.53;2.80;;;7.10;95.10;;;;;;9189398;19;20460;-73
2022/01/23 08:51:04;;;;;;;3.65;2.67;;;7.10;95.10;;;;;;9182210;19;20373;-72
2022/01/23 08:54:20;;;;;;;4.88;2.63;;;7.10;95.10;;;;;;9183925;19;20089;-72
2022/01/23 08:57:29;;;;;;;5.35;3.00;;;7.10;95.10;;;;;;9178802;19;20018;-72
2022/01/23 09:00:54;;;;;;;6.13;4.30;;;7.10;95.10;;;;;;9180914;19;20724;-71
2022/01/23 09:04:02;;;;;;;4.93;3.38;;;7.10;95.10;;;;;;9182494;19;20011;-72
2022/01/23 09:07:07;;;;;;;3.92;2.95;;;7.10;95.10;;;;;;9179426;19;20476;-72
2022/01/23 09:10:28;;;;;;;4.60;2.70;;;7.10;95.10;;;;;;9182364;19;20464;-73
2022/01/23 09:13:51;;;;;;;5.15;2.83;;;7.10;95.10;;;;;;9182707;19;20022;-72
2022/01/23 09:17:00;;;;;;;3.40;3.00;;;7.20;95.10;;;;;;9182653;19;20025;-72
2022/01/23 09:20:06;;;;;;;3.97;3.03;;;7.20;95.10;;;;;;9181059;19;20014;-72
2022/01/23 09:23:11;;;;;;;7.95;3.30;;;7.20;95.10;;;;;;9183452;19;20018;-72
2022/01/23 09:26:22;;;;;;;3.03;2.72;;;7.20;95.10;;;;;;9179908;19;20375;-73
2022/01/23 09:29:31;;;;;;;3.10;2.80;;;7.20;95.10;;;;;;9182354;19;20014;-72
2022/01/23 09:32:39;;;;;;;3.50;2.65;;;7.20;95.10;;;;;;9181337;19;20089;-72
2022/01/23 09:35:47;;;;;;;4.03;3.00;;;7.20;95.10;;;;;;9182007;19;20479;-73
2022/01/23 09:38:54;;;;;;;4.47;3.15;;;7.20;95.10;;;;;;9183252;19;20010;-71
2022/01/23 09:42:22;;;;;;;4.25;3.20;;;7.30;95.20;;;;;;9179045;19;20014;-72
2022/01/23 09:45:28;;;;;;;4.90;3.85;;;7.30;95.20;;;;;;9176732;19;20014;-71
2022/01/23 09:48:35;;;;;;;6.00;3.60;;;7.30;95.50;;;;;;9177760;19;20026;-71
2022/01/23 09:51:44;;;;;;;5.35;3.20;;;7.30;95.20;;;;;;9178002;19;20006;-71
2022/01/23 09:54:57;;;;;;;3.97;3.35;;;7.30;95.20;;;;;;9177411;19;20019;-71
2022/01/23 09:58:05;;;;;;;3.80;3.40;;;7.40;95.20;;;;;;9178913;19;20476;-72
2022/01/23 10:01:12;;;;;;;6.55;3.78;;;7.40;95.20;;;;;;9178903;19;20018;-70
2022/01/23 10:04:19;;;;;;;4.65;3.88;;;7.40;95.20;;;;;;9172401;19;20500;-73
2022/01/23 10:07:24;;;;;;;4.57;3.40;;;7.40;95.20;;;;;;9176426;19;20078;-72
2022/01/23 10:10:38;;;;;;;3.65;3.10;;;7.40;95.20;;;;;;9180383;19;20755;-71
2022/01/23 10:13:49;;;;;;;3.78;3.38;;;7.50;95.20;;;;;;9180943;19;20018;-71
2022/01/23 10:16:54;;;;;;;4.72;3.22;;;7.50;95.30;;;;;;9177778;19;20023;-72
2022/01/23 10:20:00;;;;;;;4.75;3.35;;;7.50;95.20;;;;;;9178234;19;20478;-71
2022/01/23 10:23:05;;;;;;;3.92;3.53;;;7.60;95.30;;;;;;9180004;19;20033;-71
2022/01/23 10:26:10;;;;;;;5.55;3.30;;;7.60;95.30;;;;;;9177491;19;20018;-71
2022/01/23 10:29:34;;;;;;;5.43;3.80;;;7.60;95.30;;;;;;9174856;19;20018;-71
2022/01/23 10:32:40;;;;;;;4.47;3.53;;;7.70;95.30;;;;;;9180137;19;20018;-70
2022/01/23 10:36:00;;;;;;;3.40;3.10;;;7.70;95.30;;;;;;9179463;19;20023;-71
2022/01/23 10:39:05;;;;;;;4.45;3.13;;;7.80;95.30;;;;;;9176968;19;20482;-71
2022/01/23 10:42:47;;;;;;;5.20;3.35;;;7.80;95.30;;;;;;9177160;19;20033;-70
2022/01/23 10:49:12;;;;;;;4.47;2.90;;;7.90;95.30;;;;;;9178405;19;20766;-73
2022/01/23 10:52:28;;;;;;;4.90;3.20;;;7.90;95.30;;;;;;9177063;19;20078;-71
2022/01/23 10:55:35;;;;;;;3.50;2.60;;;8.00;95.30;;;;;;9176592;19;20014;-71
2022/01/23 10:58:41;;;;;;;3.28;2.53;;;8.00;95.30;;;;;;9174969;19;20026;-70
2022/01/23 11:02:03;;;;;;;3.25;2.78;;;8.00;95.30;;;;;;9178193;19;20106;-70
2022/01/23 11:05:11;;;;;;;3.05;2.75;;;8.10;95.20;;;;;;9174925;19;20018;-71
2022/01/23 11:08:27;;;;;;;3.53;2.95;;;8.10;95.30;;;;;;9179143;19;20842;-69
2022/01/23 11:11:44;;;;;;;3.20;2.70;;;8.10;95.30;;;;;;9175482;19;20022;-71
2022/01/23 11:18:22;;;;;;;2.67;2.47;;;8.30;95.30;;;;;;9175072;19;20101;-72
2022/01/23 11:21:35;;;;;;;3.42;2.85;;;8.30;95.30;;;;;;9173182;19;20043;-71
2022/01/23 11:25:00;;;;;;;3.72;2.78;;;8.30;95.30;;;;;;9174383;19;20023;-71
2022/01/23 11:28:13;;;;;;;3.67;2.80;;;8.30;95.30;;;;;;9174327;19;20476;-72
2022/01/23 11:31:22;;;;;;;3.05;2.75;;;8.40;95.20;;;;;;9175428;19;20028;-71
2022/01/23 11:34:33;;;;;;;3.72;2.97;;;8.40;95.20;;;;;;9173362;19;20364;-72
2022/01/23 11:37:50;;;;;;;3.55;2.70;;;8.40;95.20;;;;;;9173973;19;20011;-72
2022/01/23 11:51:23;;;;;;;2.63;2.03;;;8.50;95.10;;;;;;9177400;19;20014;-71
2022/01/23 11:54:38;;;;;;;2.35;2.15;;;8.60;95.10;;;;;;9178819;19;20014;-72
2022/01/23 11:57:45;;;;;;;2.72;2.33;;;8.60;95.00;;;;;;9174900;19;20098;-71
2022/01/23 12:00:52;;;;;;;2.35;2.05;;;8.60;95.00;;;;;;9174799;19;20082;-72
2022/01/23 12:04:22;;;;;;;2.97;1.90;;;8.60;95.00;;;;;;9174631;19;20054;-72
2022/01/23 12:07:34;;;;;;;4.63;1.80;;;8.70;95.00;;;;;;9173947;19;20018;-71
2022/01/23 12:10:51;;;;;;;1.80;1.30;;;8.70;95.00;;;;;;9177736;19;20025;-70
2022/01/23 12:17:47;;;;;;;1.38;1.27;;;8.70;94.80;;;;;;9179846;19;20015;-72
2022/01/23 12:20:54;;;;;;;2.22;1.42;;;8.80;94.90;;;;;;9176583;19;20019;-72
2022/01/23 12:24:03;;;;;;;1.38;1.00;;;8.80;94.80;;;;;;9178263;19;20038;-71
2022/01/23 12:27:21;;;;;;;1.10;1.00;;;8.80;94.80;;;;;;9182080;19;20014;-71
2022/01/23 12:30:37;;;;;;;0.88;0.70;;;8.80;94.70;;;;;;9187758;19;20558;-70
2022/01/23 12:33:50;;;;;;;1.00;0.90;;;8.80;94.70;;;;;;9185189;19;20017;-70
2022/01/23 12:36:57;;;;;;;1.30;1.20;;;8.80;94.60;;;;;;9185525;19;20011;-71
2022/01/23 12:40:28;;;;;;;1.27;1.00;;;8.80;94.60;;;;;;9184110;19;20142;-71
2022/01/23 12:43:39;;;;;;;1.38;0.85;;;8.80;94.60;;;;;;9187122;19;20018;-71
2022/01/23 12:46:51;;;;;;;0.80;0.70;;;8.80;94.60;;;;;;9183507;19;20500;-71
2022/01/23 12:49:56;;;;;;;0.70;0.68;;;8.80;94.50;;;;;;9183918;19;20017;-70
2022/01/23 12:53:01;;;;;;;0.82;0.70;;;8.80;94.50;;;;;;9184651;19;20002;-72
2022/01/23 12:56:12;;;;;;;1.38;1.17;;;8.80;94.50;;;;;;9186839;19;20023;-70
2022/01/23 12:59:25;;;;;;;1.20;1.10;;;8.80;94.40;;;;;;9187142;19;20472;-71
2022/01/23 13:02:36;;;;;;;2.25;1.50;;;8.80;94.40;;;;;;9187504;19;20018;-71
2022/01/23 13:05:48;;;;;;;4.22;1.60;;;8.80;94.40;;;;;;9183336;19;20010;-70
2022/01/23 13:09:03;;;;;;;2.25;1.88;;;8.80;94.30;;;;;;9183368;19;20014;-70
2022/01/23 13:12:15;;;;;;;3.28;2.13;;;8.80;94.40;;;;;;9182840;19;20024;-71
2022/01/23 13:15:43;;;;;;;2.80;1.70;;;8.80;94.30;;;;;;9183281;19;20015;-71
2022/01/23 13:19:04;;;;;;;2.40;2.00;;;8.80;94.40;;;;;;9186613;19;20011;-72
2022/01/23 13:32:14;;;;;;;3.00;2.13;;;8.80;94.30;;;;;;9187175;19;20122;-70
2022/01/23 13:35:26;;;;;;;3.15;2.13;;;8.70;94.30;;;;;;9186583;19;20018;-71
2022/01/23 13:38:33;;;;;;;2.72;1.83;;;8.70;94.30;;;;;;9185300;19;20344;-70
2022/01/23 13:41:46;;;;;;;2.63;1.92;;;8.70;94.30;;;;;;9182727;19;20025;-71
2022/01/23 13:48:44;;;;;;;3.05;2.05;;;8.80;94.60;;;;;;9177180;19;20021;-71
2022/01/23 13:52:09;;;;;;;2.90;2.10;;;8.80;94.30;;;;;;9178478;19;20077;-70
2022/01/23 13:58:37;;;;;;;2.97;2.03;;;8.70;94.20;;;;;;9178040;19;20018;-70
2022/01/23 14:01:56;;;;;;;2.30;1.98;;;8.70;94.20;;;;;;9178213;19;20022;-73
2022/01/23 14:05:08;;;;;;;1.35;1.15;;;8.70;94.20;;;;;;9174522;19;20025;-71
2022/01/23 14:08:16;;;;;;;1.60;1.10;;;8.70;94.10;;;;;;9177760;19;20018;-71
2022/01/23 14:11:28;;;;;;;1.20;0.85;;;8.70;94.10;;;;;;9178919;19;20030;-70
2022/01/23 14:14:32;;;;;;;1.10;1.00;;;8.70;94.10;;;;;;9175136;19;20471;-70
2022/01/23 14:17:40;;;;;;;1.33;1.10;;;8.70;94.10;;;;;;9177080;19;20074;-71
2022/01/23 14:20:48;;;;;;;1.02;0.85;;;8.60;94.10;;;;;;9176609;19;20506;-71
2022/01/23 14:23:56;;;;;;;0.50;0.50;;;8.60;94.00;;;;;;9178137;19;20384;-71
2022/01/23 14:27:06;;;;;;;0.70;0.60;;;8.60;94.00;;;;;;9176679;19;20074;-71
2022/01/23 14:30:15;;;;;;;1.00;0.85;;;8.60;94.00;;;;;;9180530;19;20022;-71
2022/01/23 14:33:27;;;;;;;1.83;0.95;;;8.60;94.00;;;;;;9178140;19;20011;-71
2022/01/23 14:36:43;;;;;;;1.00;0.77;;;8.60;93.90;;;;;;9178499;19;20067;-71
2022/01/23 14:39:48;;;;;;;0.93;0.90;;;8.50;93.90;;;;;;9178260;19;20082;-72
2022/01/23 14:43:05;;;;;;;1.42;0.88;;;8.50;93.90;;;;;;9173505;19;20475;-72
2022/01/23 14:46:12;;;;;;;3.15;1.00;;;8.50;93.90;;;;;;9176846;19;20021;-71
2022/01/23 14:49:25;;;;;;;1.75;0.98;;;8.50;93.90;;;;;;9170681;19;20037;-71
2022/01/23 14:52:31;;;;;;;2.33;1.10;;;8.50;93.90;;;;;;9175484;19;20020;-70
2022/01/23 14:55:36;;;;;;;1.75;1.13;;;8.50;93.90;;;;;;9176686;19;20015;-70
2022/01/23 14:58:42;;;;;;;1.20;1.10;;;8.50;93.90;;;;;;9175386;19;20018;-72
2022/01/23 15:01:49;;;;;;;1.15;1.00;;;8.40;93.80;;;;;;9172738;19;20366;-71
2022/01/23 15:05:02;;;;;;;2.67;1.00;;;8.40;93.80;;;;;;9171006;19;20725;-70
2022/01/23 15:08:09;;;;;;;1.43;0.93;;;8.40;93.80;;;;;;9172150;19;20022;-71
2022/01/23 15:11:14;;;;;;;1.50;0.88;;;8.40;93.80;;;;;;9177894;19;20015;-71
2022/01/23 15:14:19;;;;;;;1.15;0.93;;;8.30;93.70;;;;;;9176495;19;20021;-71
2022/01/23 15:17:26;;;;;;;1.17;1.02;;;8.40;93.80;;;;;;9175388;19;20026;-70
2022/01/23 15:20:35;;;;;;;1.50;1.15;;;8.30;93.70;;;;;;9175198;19;20014;-70
2022/01/23 15:23:41;;;;;;;1.33;1.02;;;8.30;93.70;;;;;;9173514;19;20022;-70
2022/01/23 15:26:46;;;;;;;1.35;1.00;;;8.30;93.70;;;;;;9172601;19;20015;-71
2022/01/23 15:29:54;;;;;;;6.03;1.20;;;8.30;93.70;;;;;;9176175;19;20023;-70
2022/01/23 15:33:01;;;;;;;1.10;1.00;;;8.20;93.70;;;;;;9174432;19;20491;-72
2022/01/23 15:36:09;;;;;;;1.77;1.40;;;8.20;93.70;;;;;;9172114;19;20026;-70
2022/01/23 15:39:15;;;;;;;2.20;1.30;;;8.20;93.60;;;;;;9175403;19;20037;-71
2022/01/23 15:42:20;;;;;;;1.40;1.27;;;8.20;93.60;;;;;;9175690;19;20488;-70
2022/01/23 15:45:28;;;;;;;2.70;1.70;;;8.20;93.60;;;;;;9172280;19;20018;-71
2022/01/23 15:48:33;;;;;;;2.05;1.63;;;8.20;93.60;;;;;;9175845;19;20018;-72
2022/01/23 15:51:40;;;;;;;2.72;1.73;;;8.10;93.60;;;;;;9174712;19;20018;-70
2022/01/23 15:54:46;;;;;;;2.05;1.35;;;8.10;93.60;;;;;;9175762;19;20473;-69
2022/01/23 15:57:51;;;;;;;2.40;1.83;;;8.10;93.60;;;;;;9175304;19;20048;-70
2022/01/23 16:00:56;;;;;;;1.83;1.55;;;8.10;93.60;;;;;;9177345;19;20475;-70
2022/01/23 16:04:04;;;;;;;1.55;1.40;;;8.10;93.60;;;;;;9191713;19;20013;-71
2022/01/23 16:07:16;;;;;;;2.28;1.70;;;8.00;93.50;;;;;;9181211;19;20066;-70
2022/01/23 16:10:22;;;;;;;1.83;1.50;;;8.00;93.50;;;;;;9186582;19;20133;-69
2022/01/23 16:13:27;;;;;;;1.92;1.60;;;8.00;93.60;;;;;;9186619;19;20020;-70
2022/01/23 16:16:33;;;;;;;1.92;1.50;;;8.00;93.60;;;;;;9187898;19;20029;-70
2022/01/23 16:19:38;;;;;;;2.05;1.70;;;8.00;93.60;;;;;;9188254;19;20014;-70
2022/01/23 16:22:47;;;;;;;3.05;1.55;;;7.90;93.50;;;;;;9188915;19;20019;-71
2022/01/23 16:25:53;;;;;;;2.70;1.73;;;7.90;93.50;;;;;;9188613;19;20044;-70
2022/01/23 16:28:58;;;;;;;2.15;1.80;;;7.90;93.50;;;;;;9182403;19;20018;-69
2022/01/23 16:32:03;;;;;;;1.58;1.40;;;7.90;93.50;;;;;;9179667;19;20017;-70
2022/01/23 16:35:11;;;;;;;2.60;1.80;;;7.90;93.50;;;;;;9181700;19;20019;-70
2022/01/23 16:38:19;;;;;;;4.80;1.80;;;7.90;93.50;;;;;;9179557;19;20034;-71
2022/01/23 16:41:24;;;;;;;2.28;1.70;;;7.90;93.50;;;;;;9183529;19;20017;-72
2022/01/23 16:44:29;;;;;;;2.78;1.80;;;7.90;93.50;;;;;;9183877;19;20095;-70
2022/01/23 16:47:35;;;;;;;3.05;1.92;;;7.90;93.50;;;;;;9181155;19;20038;-70
2022/01/23 16:50:40;;;;;;;3.42;1.63;;;7.80;93.50;;;;;;9181427;19;20022;-70
2022/01/23 16:53:48;;;;;;;2.30;1.90;;;7.80;93.40;;;;;;9181266;19;20017;-70
2022/01/23 16:56:55;;;;;;;3.38;2.10;;;7.80;93.40;;;;;;9184021;19;20675;-71
2022/01/23 17:00:00;;;;;;;5.82;2.70;;;7.80;93.40;;;;;;9181964;19;20018;-70
2022/01/23 17:03:05;;;;;;;3.45;2.42;;;7.80;93.40;;;;;;9177622;19;20014;-70
2022/01/23 17:06:11;;;;;;;3.50;2.17;;;7.70;93.40;;;;;;9174534;19;20948;-72
2022/01/23 17:09:19;;;;;;;2.28;1.92;;;7.80;93.40;;;;;;9180434;19;20023;-70
2022/01/23 17:12:24;;;;;;;2.30;2.05;;;7.80;93.40;;;;;;9179622;19;20439;-71
2022/01/23 17:15:29;;;;;;;2.70;2.08;;;7.70;93.50;;;;;;9182290;19;20010;-71
2022/01/23 17:18:34;;;;;;;3.25;2.20;;;7.70;93.40;;;;;;9181062;19;20354;-70
2022/01/23 17:21:40;;;;;;;2.15;1.83;;;7.70;93.40;;;;;;9180747;19;20066;-71
2022/01/23 17:24:48;;;;;;;5.15;2.38;;;7.70;93.40;;;;;;9181010;19;20019;-72
2022/01/23 17:28:01;;;;;;;3.22;2.15;;;7.70;93.40;;;;;;9179898;19;20018;-73
2022/01/23 17:31:06;;;;;;;3.55;1.98;;;7.70;93.50;;;;;;9183162;19;20082;-71
2022/01/23 17:34:11;;;;;;;2.50;1.90;;;7.70;93.40;;;;;;9178822;19;20396;-72
2022/01/23 17:37:17;;;;;;;3.63;2.25;;;7.70;93.40;;;;;;9181637;19;20575;-70
2022/01/23 17:40:24;;;;;;;3.20;2.17;;;7.70;93.40;;;;;;9180615;19;20048;-70
2022/01/23 17:43:29;;;;;;;2.90;2.28;;;7.60;93.40;;;;;;9184261;19;20873;-70
2022/01/23 17:46:36;;;;;;;2.45;2.05;;;7.60;93.40;;;;;;9185707;19;20022;-70
2022/01/23 17:49:52;;;;;;;4.15;2.40;;;7.60;93.40;;;;;;9178731;19;20006;-71
2022/01/23 17:52:58;;;;;;;4.65;2.72;;;7.60;93.40;;;;;;9180543;19;20011;-70
2022/01/23 17:56:06;;;;;;;4.03;3.00;;;7.60;93.40;;;;;;9180025;19;20017;-71
2022/01/23 17:59:10;;;;;;;5.15;3.35;;;7.60;93.40;;;;;;9181639;19;20478;-70
2022/01/23 18:02:17;;;;;;;5.00;3.17;;;7.60;93.40;;;;;;9180500;19;20014;-70
2022/01/23 18:05:22;;;;;;;4.90;3.10;;;7.50;93.30;;;;;;9179687;19;20594;-70
2022/01/23 18:08:29;;;;;;;5.65;3.20;;;7.60;93.30;;;;;;9179242;19;20014;-71
2022/01/23 18:11:37;;;;;;;4.85;3.33;;;7.60;93.30;;;;;;9175913;19;20018;-71
2022/01/23 18:14:47;;;;;;;4.43;2.90;;;7.50;93.30;;;;;;9180050;19;20046;-71
2022/01/23 18:17:54;;;;;;;3.70;2.75;;;7.50;93.30;;;;;;9178562;19;20082;-72
2022/01/23 18:21:01;;;;;;;4.05;2.80;;;7.50;93.30;;;;;;9176784;19;20021;-71
2022/01/23 18:24:08;;;;;;;4.07;3.00;;;7.50;93.40;;;;;;9173827;19;20018;-71
2022/01/23 18:27:16;;;;;;;6.20;3.65;;;7.50;93.40;;;;;;9176599;19;21469;-72
2022/01/23 18:30:21;;;;;;;3.88;3.10;;;7.50;93.40;;;;;;9178029;19;20026;-70
2022/01/23 18:33:27;;;;;;;5.00;3.70;;;7.50;93.40;;;;;;9178968;19;20814;-70
2022/01/23 18:36:34;;;;;;;5.00;3.45;;;7.50;93.40;;;;;;9180571;19;20014;-71
2022/01/23 18:39:39;;;;;;;6.10;3.92;;;7.50;93.30;;;;;;9176359;19;20356;-70
2022/01/23 18:42:49;;;;;;;5.57;3.50;;;7.50;93.30;;;;;;9175748;19;21035;-71
2022/01/23 18:45:54;;;;;;;4.90;3.80;;;7.50;93.30;;;;;;9176221;19;20019;-70
2022/01/23 18:48:59;;;;;;;5.60;3.60;;;7.50;93.30;;;;;;9177873;19;20009;-71
2022/01/23 18:52:05;;;;;;;5.60;3.80;;;7.50;93.30;;;;;;9176748;19;20064;-70
2022/01/23 18:55:15;;;;;;;5.78;3.95;;;7.50;93.30;;;;;;9174550;19;20365;-72
2022/01/23 18:58:31;;;;;;;7.18;3.95;;;7.50;93.30;;;;;;9173078;19;20783;-71
2022/01/23 19:01:43;;;;;;;7.57;4.75;;;7.40;93.30;;;;;;9175405;19;20823;-72
2022/01/23 19:04:56;;;;;;;6.57;4.78;;;7.40;93.30;;;;;;9175255;19;20015;-70
2022/01/23 19:08:05;;;;;;;6.70;4.40;;;7.50;93.30;;;;;;9177592;19;20014;-71
2022/01/23 19:11:10;;;;;;;7.90;4.65;;;7.40;93.30;;;;;;9175653;19;20010;-71
2022/01/23 19:14:20;;;;;;;6.22;4.20;;;7.40;93.30;;;;;;9173476;19;20026;-70
2022/01/23 19:17:25;;;;;;;8.60;4.30;;;7.40;93.30;;;;;;9173667;19;20015;-70
2022/01/23 19:20:38;;;;;;;6.32;4.32;;;7.40;93.30;;;;;;9176295;19;21893;-71